sensor_id;sensor_type;location;lat;lon;timestamp;pressure;altitude;pressure_sealevel;temperature;humidity
3544;BME280;1786;52.870;9.578;2023-09-19T00:00:44;99561.78;;;23.04;67.32
3544;BME280;1786;52.870;9.578;2023-09-19T00:03:14;99573.41;;;23.18;66.82
3544;BME280;1786;52.870;9.578;2023-09-19T00:05:42;99568.56;;;22.94;67.77
3544;BME280;1786;52.870;9.578;2023-09-19T00:08:12;99569.91;;;23.24;66.49
3544;BME280;1786;52.870;9.578;2023-09-19T00:10:42;99571.56;;;23.19;67.16
3544;BME280;1786;52.870;9.578;2023-09-19T00:13:09;99579.84;;;23.30;66.43
3544;BME280;1786;52.870;9.578;2023-09-19T00:15:45;99571.88;;;22.96;67.32
3544;BME280;1786;52.870;9.578;2023-09-19T00:18:18;99567.47;;;22.88;67.72
3544;BME280;1786;52.870;9.578;2023-09-19T00:20:48;99578.03;;;23.44;66.42
3544;BME280;1786;52.870;9.578;2023-09-19T00:23:19;99575.97;;;23.73;64.90
3544;BME280;1786;52.870;9.578;2023-09-19T00:25:46;99570.59;;;23.73;64.65
3544;BME280;1786;52.870;9.578;2023-09-19T00:28:13;99571.19;;;23.55;65.40
3544;BME280;1786;52.870;9.578;2023-09-19T00:30:43;99577.22;;;23.84;64.36
3544;BME280;1786;52.870;9.578;2023-09-19T00:33:11;99584.28;;;23.85;64.21
3544;BME280;1786;52.870;9.578;2023-09-19T00:35:53;99580.88;;;23.16;65.67
3544;BME280;1786;52.870;9.578;2023-09-19T00:38:21;99574.09;;;22.85;67.11
3544;BME280;1786;52.870;9.578;2023-09-19T00:40:50;99591.66;;;23.16;66.25
3544;BME280;1786;52.870;9.578;2023-09-19T00:43:17;99598.94;;;23.29;65.44
3544;BME280;1786;52.870;9.578;2023-09-19T00:45:46;99606.03;;;23.57;65.49
3544;BME280;1786;52.870;9.578;2023-09-19T00:48:15;99616.13;;;23.28;66.17
3544;BME280;1786;52.870;9.578;2023-09-19T00:50:43;99611.19;;;23.31;66.44
3544;BME280;1786;52.870;9.578;2023-09-19T00:53:14;99618.63;;;23.29;65.88
3544;BME280;1786;52.870;9.578;2023-09-19T00:55:42;99619.13;;;23.73;65.20
3544;BME280;1786;52.870;9.578;2023-09-19T00:58:09;99620.34;;;23.70;65.13
3544;BME280;1786;52.870;9.578;2023-09-19T01:00:37;99626.00;;;24.02;64.34
3544;BME280;1786;52.870;9.578;2023-09-19T01:03:05;99617.50;;;23.92;64.12
3544;BME280;1786;52.870;9.578;2023-09-19T01:05:33;99625.16;;;24.08;63.83
3544;BME280;1786;52.870;9.578;2023-09-19T01:08:00;99618.22;;;23.32;66.14
3544;BME280;1786;52.870;9.578;2023-09-19T01:10:27;99610.53;;;23.23;66.22
3544;BME280;1786;52.870;9.578;2023-09-19T01:13:09;99615.78;;;22.89;66.96
3544;BME280;1786;52.870;9.578;2023-09-19T01:19:23;99620.59;;;24.15;63.54
3544;BME280;1786;52.870;9.578;2023-09-19T01:22:08;99627.88;;;23.75;64.21
3544;BME280;1786;52.870;9.578;2023-09-19T01:25:16;99629.31;;;23.91;63.17
3544;BME280;1786;52.870;9.578;2023-09-19T01:30:26;99631.19;;;23.77;63.60
3544;BME280;1786;52.870;9.578;2023-09-19T01:32:55;99636.53;;;23.70;63.62
3544;BME280;1786;52.870;9.578;2023-09-19T01:35:24;99638.16;;;23.45;64.26
3544;BME280;1786;52.870;9.578;2023-09-19T01:37:51;99639.88;;;22.98;65.49
3544;BME280;1786;52.870;9.578;2023-09-19T01:40:21;99636.94;;;22.93;65.73
3544;BME280;1786;52.870;9.578;2023-09-19T01:43:12;99641.44;;;23.27;65.11
3544;BME280;1786;52.870;9.578;2023-09-19T01:48:34;99647.97;;;22.98;65.52
3544;BME280;1786;52.870;9.578;2023-09-19T01:51:06;99644.09;;;23.20;64.79
3544;BME280;1786;52.870;9.578;2023-09-19T01:53:51;99645.00;;;22.93;65.91
3544;BME280;1786;52.870;9.578;2023-09-19T01:56:25;99648.13;;;22.55;66.36
3544;BME280;1786;52.870;9.578;2023-09-19T01:58:59;99654.16;;;22.57;66.70
3544;BME280;1786;52.870;9.578;2023-09-19T02:01:31;99657.16;;;22.75;66.22
3544;BME280;1786;52.870;9.578;2023-09-19T02:03:58;99644.28;;;23.12;64.75
3544;BME280;1786;52.870;9.578;2023-09-19T02:06:25;99659.94;;;22.54;66.58
3544;BME280;1786;52.870;9.578;2023-09-19T02:08:54;99650.19;;;22.53;66.30
3544;BME280;1786;52.870;9.578;2023-09-19T02:11:21;99655.19;;;22.56;66.38
3544;BME280;1786;52.870;9.578;2023-09-19T02:13:48;99668.44;;;22.51;66.76
3544;BME280;1786;52.870;9.578;2023-09-19T02:16:16;99673.66;;;22.31;66.97
3544;BME280;1786;52.870;9.578;2023-09-19T02:18:43;99674.41;;;22.81;65.22
3544;BME280;1786;52.870;9.578;2023-09-19T02:21:10;99676.41;;;22.72;65.53
3544;BME280;1786;52.870;9.578;2023-09-19T02:23:39;99681.16;;;23.05;65.13
3544;BME280;1786;52.870;9.578;2023-09-19T02:26:06;99686.31;;;22.65;66.10
3544;BME280;1786;52.870;9.578;2023-09-19T02:28:33;99686.63;;;22.83;65.09
3544;BME280;1786;52.870;9.578;2023-09-19T02:31:01;99684.13;;;23.23;63.89
3544;BME280;1786;52.870;9.578;2023-09-19T02:33:28;99690.06;;;22.99;64.84
3544;BME280;1786;52.870;9.578;2023-09-19T02:35:59;99695.97;;;22.87;64.86
3544;BME280;1786;52.870;9.578;2023-09-19T02:38:27;99706.31;;;23.25;63.91
3544;BME280;1786;52.870;9.578;2023-09-19T02:40:56;99715.28;;;23.32;63.91
3544;BME280;1786;52.870;9.578;2023-09-19T02:43:23;99714.53;;;23.65;62.99
3544;BME280;1786;52.870;9.578;2023-09-19T02:45:50;99705.47;;;23.80;62.91
3544;BME280;1786;52.870;9.578;2023-09-19T02:48:17;99711.22;;;23.63;63.02
3544;BME280;1786;52.870;9.578;2023-09-19T02:50:48;99711.22;;;23.63;62.74
3544;BME280;1786;52.870;9.578;2023-09-19T02:53:16;99707.13;;;23.81;62.92
3544;BME280;1786;52.870;9.578;2023-09-19T02:55:43;99715.75;;;23.56;63.19
3544;BME280;1786;52.870;9.578;2023-09-19T02:58:10;99723.22;;;23.47;63.13
3544;BME280;1786;52.870;9.578;2023-09-19T03:00:38;99717.66;;;23.62;62.27
3544;BME280;1786;52.870;9.578;2023-09-19T03:03:05;99716.00;;;23.13;62.71
3544;BME280;1786;52.870;9.578;2023-09-19T03:05:33;99723.47;;;22.76;62.74
3544;BME280;1786;52.870;9.578;2023-09-19T03:08:00;99728.63;;;22.71;62.32
3544;BME280;1786;52.870;9.578;2023-09-19T03:10:28;99726.94;;;22.70;61.50
3544;BME280;1786;52.870;9.578;2023-09-19T03:12:57;99728.03;;;22.76;60.93
3544;BME280;1786;52.870;9.578;2023-09-19T03:15:26;99731.91;;;22.66;61.12
3544;BME280;1786;52.870;9.578;2023-09-19T03:17:53;99729.25;;;22.73;60.41
3544;BME280;1786;52.870;9.578;2023-09-19T03:20:23;99728.88;;;23.11;59.47
3544;BME280;1786;52.870;9.578;2023-09-19T03:22:50;99733.88;;;23.21;59.73
3544;BME280;1786;52.870;9.578;2023-09-19T03:25:17;99730.16;;;23.22;58.84
3544;BME280;1786;52.870;9.578;2023-09-19T03:27:47;99735.38;;;23.30;58.84
3544;BME280;1786;52.870;9.578;2023-09-19T03:30:15;99724.09;;;23.68;57.84
3544;BME280;1786;52.870;9.578;2023-09-19T03:32:47;99736.03;;;24.13;57.55
3544;BME280;1786;52.870;9.578;2023-09-19T03:35:17;99732.06;;;23.83;58.71
3544;BME280;1786;52.870;9.578;2023-09-19T03:37:45;99736.25;;;24.18;58.35
3544;BME280;1786;52.870;9.578;2023-09-19T03:40:13;99733.53;;;23.98;59.42
3544;BME280;1786;52.870;9.578;2023-09-19T03:42:41;99735.41;;;24.38;58.75
3544;BME280;1786;52.870;9.578;2023-09-19T03:45:12;99743.38;;;23.65;60.69
3544;BME280;1786;52.870;9.578;2023-09-19T03:47:44;99729.31;;;23.76;60.84
3544;BME280;1786;52.870;9.578;2023-09-19T03:50:15;99734.78;;;23.35;62.33
3544;BME280;1786;52.870;9.578;2023-09-19T03:52:44;99731.09;;;23.55;62.03
3544;BME280;1786;52.870;9.578;2023-09-19T03:55:11;99743.84;;;23.20;62.42
3544;BME280;1786;52.870;9.578;2023-09-19T03:57:39;99744.19;;;23.10;62.58
3544;BME280;1786;52.870;9.578;2023-09-19T04:00:06;99735.75;;;23.20;62.46
3544;BME280;1786;52.870;9.578;2023-09-19T04:02:39;99749.31;;;22.42;63.83
3544;BME280;1786;52.870;9.578;2023-09-19T04:05:07;99762.28;;;23.17;62.12
3544;BME280;1786;52.870;9.578;2023-09-19T04:07:34;99751.66;;;22.80;62.78
3544;BME280;1786;52.870;9.578;2023-09-19T04:10:02;99761.69;;;23.21;62.10
3544;BME280;1786;52.870;9.578;2023-09-19T04:12:30;99762.28;;;23.65;61.20
3544;BME280;1786;52.870;9.578;2023-09-19T04:14:58;99763.94;;;22.89;62.60
3544;BME280;1786;52.870;9.578;2023-09-19T04:17:25;99771.72;;;23.41;61.51
3544;BME280;1786;52.870;9.578;2023-09-19T04:19:52;99775.09;;;23.56;60.94
3544;BME280;1786;52.870;9.578;2023-09-19T04:22:20;99770.44;;;22.67;63.35
3544;BME280;1786;52.870;9.578;2023-09-19T04:24:46;99771.94;;;23.04;61.90
3544;BME280;1786;52.870;9.578;2023-09-19T04:27:13;99759.69;;;23.37;61.06
3544;BME280;1786;52.870;9.578;2023-09-19T04:29:41;99771.44;;;22.94;62.06
3544;BME280;1786;52.870;9.578;2023-09-19T04:32:11;99776.91;;;23.01;61.99
3544;BME280;1786;52.870;9.578;2023-09-19T04:34:39;99783.22;;;22.86;61.79
3544;BME280;1786;52.870;9.578;2023-09-19T04:37:06;99781.66;;;22.99;61.11
3544;BME280;1786;52.870;9.578;2023-09-19T04:39:33;99802.66;;;23.10;61.10
3544;BME280;1786;52.870;9.578;2023-09-19T04:42:00;99790.72;;;22.91;61.70
3544;BME280;1786;52.870;9.578;2023-09-19T04:44:27;99808.22;;;23.02;61.20
3544;BME280;1786;52.870;9.578;2023-09-19T04:46:54;99798.16;;;22.61;61.96
3544;BME280;1786;52.870;9.578;2023-09-19T04:49:21;99796.50;;;23.16;60.52
3544;BME280;1786;52.870;9.578;2023-09-19T04:51:48;99792.13;;;23.15;59.62
3544;BME280;1786;52.870;9.578;2023-09-19T04:54:15;99784.84;;;23.09;59.67
3544;BME280;1786;52.870;9.578;2023-09-19T04:56:42;99783.16;;;22.80;60.64
3544;BME280;1786;52.870;9.578;2023-09-19T04:59:09;99787.28;;;22.76;60.66
3544;BME280;1786;52.870;9.578;2023-09-19T05:01:37;99789.44;;;22.59;60.78
3544;BME280;1786;52.870;9.578;2023-09-19T05:04:04;99787.41;;;22.39;61.28
3544;BME280;1786;52.870;9.578;2023-09-19T05:06:32;99779.06;;;22.56;61.06
3544;BME280;1786;52.870;9.578;2023-09-19T05:09:00;99791.38;;;22.22;62.29
3544;BME280;1786;52.870;9.578;2023-09-19T05:11:27;99788.13;;;22.55;61.38
3544;BME280;1786;52.870;9.578;2023-09-19T05:13:54;99795.47;;;22.61;60.82
3544;BME280;1786;52.870;9.578;2023-09-19T05:16:21;99789.03;;;22.19;61.43
3544;BME280;1786;52.870;9.578;2023-09-19T05:18:48;99793.78;;;22.17;61.78
3544;BME280;1786;52.870;9.578;2023-09-19T05:21:16;99801.34;;;22.71;59.92
3544;BME280;1786;52.870;9.578;2023-09-19T05:23:44;99807.13;;;22.25;61.10
3544;BME280;1786;52.870;9.578;2023-09-19T05:26:11;99814.31;;;22.61;60.77
3544;BME280;1786;52.870;9.578;2023-09-19T05:28:39;99820.34;;;22.63;60.34
3544;BME280;1786;52.870;9.578;2023-09-19T05:31:05;99821.06;;;22.29;61.20
3544;BME280;1786;52.870;9.578;2023-09-19T05:33:32;99830.59;;;22.31;61.49
3544;BME280;1786;52.870;9.578;2023-09-19T05:35:59;99831.28;;;22.61;60.09
3544;BME280;1786;52.870;9.578;2023-09-19T05:38:26;99845.78;;;22.60;59.93
3544;BME280;1786;52.870;9.578;2023-09-19T05:40:54;99851.88;;;22.47;60.87
3544;BME280;1786;52.870;9.578;2023-09-19T05:43:21;99857.50;;;22.53;60.60
3544;BME280;1786;52.870;9.578;2023-09-19T05:45:48;99866.06;;;22.20;61.43
3544;BME280;1786;52.870;9.578;2023-09-19T05:48:19;99867.50;;;22.37;60.89
3544;BME280;1786;52.870;9.578;2023-09-19T05:50:47;99870.81;;;22.82;60.37
3544;BME280;1786;52.870;9.578;2023-09-19T05:53:15;99873.28;;;22.99;59.61
3544;BME280;1786;52.870;9.578;2023-09-19T05:55:42;99863.94;;;22.52;60.62
3544;BME280;1786;52.870;9.578;2023-09-19T05:58:09;99871.50;;;22.63;60.05
3544;BME280;1786;52.870;9.578;2023-09-19T06:00:37;99862.63;;;22.69;60.29
3544;BME280;1786;52.870;9.578;2023-09-19T06:03:06;99861.09;;;22.81;59.74
3544;BME280;1786;52.870;9.578;2023-09-19T06:05:33;99868.34;;;23.37;58.83
3544;BME280;1786;52.870;9.578;2023-09-19T06:08:00;99867.28;;;23.66;58.38
3544;BME280;1786;52.870;9.578;2023-09-19T06:10:27;99873.47;;;24.08;58.45
3544;BME280;1786;52.870;9.578;2023-09-19T06:12:55;99884.94;;;24.17;57.39
3544;BME280;1786;52.870;9.578;2023-09-19T06:15:25;99865.03;;;25.44;56.21
3544;BME280;1786;52.870;9.578;2023-09-19T06:17:54;99876.88;;;26.15;53.27
3544;BME280;1786;52.870;9.578;2023-09-19T06:20:23;99882.66;;;27.57;50.54
3544;BME280;1786;52.870;9.578;2023-09-19T06:22:51;99883.72;;;29.07;47.41
3544;BME280;1786;52.870;9.578;2023-09-19T06:25:18;99890.34;;;29.35;46.58
3544;BME280;1786;52.870;9.578;2023-09-19T06:27:50;99901.19;;;29.94;45.34
3544;BME280;1786;52.870;9.578;2023-09-19T06:30:21;99895.81;;;30.56;45.21
3544;BME280;1786;52.870;9.578;2023-09-19T06:32:56;99906.25;;;30.02;43.97
3544;BME280;1786;52.870;9.578;2023-09-19T06:35:22;99899.53;;;28.87;45.18
3544;BME280;1786;52.870;9.578;2023-09-19T06:37:50;99897.44;;;27.80;47.60
3544;BME280;1786;52.870;9.578;2023-09-19T06:40:18;99893.22;;;29.28;46.60
3544;BME280;1786;52.870;9.578;2023-09-19T06:42:47;99899.84;;;28.67;46.65
3544;BME280;1786;52.870;9.578;2023-09-19T06:45:16;99881.19;;;28.40;46.69
3544;BME280;1786;52.870;9.578;2023-09-19T06:47:46;99889.63;;;29.28;45.94
3544;BME280;1786;52.870;9.578;2023-09-19T06:50:18;99896.66;;;30.00;44.72
3544;BME280;1786;52.870;9.578;2023-09-19T06:52:46;99898.00;;;31.22;42.43
3544;BME280;1786;52.870;9.578;2023-09-19T06:55:21;99898.84;;;31.22;41.06
3544;BME280;1786;52.870;9.578;2023-09-19T06:57:50;99888.41;;;30.11;43.52
3544;BME280;1786;52.870;9.578;2023-09-19T07:00:17;99892.34;;;29.40;44.64
3544;BME280;1786;52.870;9.578;2023-09-19T07:02:58;99886.25;;;28.55;45.56
3544;BME280;1786;52.870;9.578;2023-09-19T07:05:28;99879.34;;;26.87;47.96
3544;BME280;1786;52.870;9.578;2023-09-19T07:07:55;99893.56;;;27.07;48.76
3544;BME280;1786;52.870;9.578;2023-09-19T07:10:22;99886.78;;;27.41;47.13
3544;BME280;1786;52.870;9.578;2023-09-19T07:13:00;99898.38;;;27.49;47.59
3544;BME280;1786;52.870;9.578;2023-09-19T07:15:28;99890.53;;;26.97;48.76
3544;BME280;1786;52.870;9.578;2023-09-19T07:17:55;99906.50;;;28.95;47.09
3544;BME280;1786;52.870;9.578;2023-09-19T07:20:24;99911.34;;;31.18;41.78
3544;BME280;1786;52.870;9.578;2023-09-19T07:22:58;99924.13;;;32.40;39.67
3544;BME280;1786;52.870;9.578;2023-09-19T07:25:28;99932.06;;;32.63;38.72
3544;BME280;1786;52.870;9.578;2023-09-19T07:27:56;99935.53;;;31.87;39.69
3544;BME280;1786;52.870;9.578;2023-09-19T07:30:26;99931.88;;;31.60;40.57
3544;BME280;1786;52.870;9.578;2023-09-19T07:32:53;99947.94;;;32.61;39.01
3544;BME280;1786;52.870;9.578;2023-09-19T07:35:19;99947.91;;;30.72;40.39
3544;BME280;1786;52.870;9.578;2023-09-19T07:37:47;99935.41;;;29.90;42.03
3544;BME280;1786;52.870;9.578;2023-09-19T07:40:19;99944.34;;;30.71;41.52
3544;BME280;1786;52.870;9.578;2023-09-19T07:42:47;99952.72;;;30.65;40.96
3544;BME280;1786;52.870;9.578;2023-09-19T07:45:14;99951.22;;;30.57;40.92
3544;BME280;1786;52.870;9.578;2023-09-19T07:47:44;99945.50;;;31.21;41.06
3544;BME280;1786;52.870;9.578;2023-09-19T07:50:16;99950.44;;;32.19;38.40
3544;BME280;1786;52.870;9.578;2023-09-19T07:52:43;99942.75;;;31.38;39.21
3544;BME280;1786;52.870;9.578;2023-09-19T07:55:10;99945.41;;;31.50;39.87
3544;BME280;1786;52.870;9.578;2023-09-19T07:57:43;99941.59;;;32.33;38.53
3544;BME280;1786;52.870;9.578;2023-09-19T08:00:10;99952.13;;;33.81;37.20
3544;BME280;1786;52.870;9.578;2023-09-19T08:02:42;99954.03;;;34.38;36.48
3544;BME280;1786;52.870;9.578;2023-09-19T08:05:10;99955.41;;;33.78;35.86
3544;BME280;1786;52.870;9.578;2023-09-19T08:07:39;99954.94;;;33.91;36.95
3544;BME280;1786;52.870;9.578;2023-09-19T08:10:08;99943.41;;;33.94;36.01
3544;BME280;1786;52.870;9.578;2023-09-19T08:12:34;99948.75;;;34.21;37.22
3544;BME280;1786;52.870;9.578;2023-09-19T08:15:04;99950.81;;;33.46;36.16
3544;BME280;1786;52.870;9.578;2023-09-19T08:17:35;99951.88;;;33.03;37.44
3544;BME280;1786;52.870;9.578;2023-09-19T08:20:02;99943.22;;;33.16;36.43
3544;BME280;1786;52.870;9.578;2023-09-19T08:22:32;99952.88;;;32.64;37.64
3544;BME280;1786;52.870;9.578;2023-09-19T08:24:58;99944.00;;;31.86;38.49
3544;BME280;1786;52.870;9.578;2023-09-19T08:27:26;99951.97;;;32.86;37.83
3544;BME280;1786;52.870;9.578;2023-09-19T08:29:55;99945.75;;;32.14;38.70
3544;BME280;1786;52.870;9.578;2023-09-19T08:32:22;99937.34;;;30.75;38.85
3544;BME280;1786;52.870;9.578;2023-09-19T08:34:51;99951.50;;;31.57;39.26
3544;BME280;1786;52.870;9.578;2023-09-19T08:37:17;99955.72;;;30.80;39.64
3544;BME280;1786;52.870;9.578;2023-09-19T08:39:45;99967.81;;;30.27;40.95
3544;BME280;1786;52.870;9.578;2023-09-19T08:42:13;99953.91;;;28.87;41.50
3544;BME280;1786;52.870;9.578;2023-09-19T08:44:40;99955.66;;;29.35;41.96
3544;BME280;1786;52.870;9.578;2023-09-19T08:47:11;99959.66;;;30.03;41.80
3544;BME280;1786;52.870;9.578;2023-09-19T08:50:00;99946.66;;;29.58;41.40
3544;BME280;1786;52.870;9.578;2023-09-19T08:52:32;99956.75;;;29.69;41.97
3544;BME280;1786;52.870;9.578;2023-09-19T08:55:06;99960.16;;;30.40;40.97
3544;BME280;1786;52.870;9.578;2023-09-19T08:57:36;99957.16;;;30.99;40.39
3544;BME280;1786;52.870;9.578;2023-09-19T09:00:09;99957.78;;;29.92;41.59
3544;BME280;1786;52.870;9.578;2023-09-19T09:02:42;99960.31;;;29.82;41.30
3544;BME280;1786;52.870;9.578;2023-09-19T09:05:10;99959.47;;;29.58;41.98
3544;BME280;1786;52.870;9.578;2023-09-19T09:07:41;99964.53;;;29.07;42.46
3544;BME280;1786;52.870;9.578;2023-09-19T09:10:08;99956.13;;;29.55;42.54
3544;BME280;1786;52.870;9.578;2023-09-19T09:12:36;99966.00;;;30.20;41.62
3544;BME280;1786;52.870;9.578;2023-09-19T09:15:08;99978.41;;;29.88;41.01
3544;BME280;1786;52.870;9.578;2023-09-19T09:17:38;99972.47;;;28.78;42.61
3544;BME280;1786;52.870;9.578;2023-09-19T09:20:05;99955.78;;;28.44;42.17
3544;BME280;1786;52.870;9.578;2023-09-19T09:22:37;99963.91;;;28.63;43.89
3544;BME280;1786;52.870;9.578;2023-09-19T09:25:06;99969.31;;;28.33;43.34
3544;BME280;1786;52.870;9.578;2023-09-19T09:27:33;99975.19;;;28.30;43.52
3544;BME280;1786;52.870;9.578;2023-09-19T09:30:00;99963.75;;;29.00;42.84
3544;BME280;1786;52.870;9.578;2023-09-19T09:32:28;99972.84;;;29.24;43.14
3544;BME280;1786;52.870;9.578;2023-09-19T09:34:58;99976.84;;;29.21;42.07
3544;BME280;1786;52.870;9.578;2023-09-19T09:37:28;99978.66;;;28.55;43.11
3544;BME280;1786;52.870;9.578;2023-09-19T09:40:01;99981.81;;;28.52;43.87
3544;BME280;1786;52.870;9.578;2023-09-19T09:42:40;99988.41;;;28.75;43.37
3544;BME280;1786;52.870;9.578;2023-09-19T09:45:18;99986.03;;;28.66;42.53
3544;BME280;1786;52.870;9.578;2023-09-19T09:47:47;99990.44;;;28.12;43.60
3544;BME280;1786;52.870;9.578;2023-09-19T09:50:30;99980.28;;;28.08;43.61
3544;BME280;1786;52.870;9.578;2023-09-19T09:56:09;99988.34;;;28.14;44.23
3544;BME280;1786;52.870;9.578;2023-09-19T09:58:51;99981.28;;;27.70;43.57
3544;BME280;1786;52.870;9.578;2023-09-19T10:01:22;99982.72;;;27.72;43.78
3544;BME280;1786;52.870;9.578;2023-09-19T10:03:59;99981.63;;;28.17;43.27
3544;BME280;1786;52.870;9.578;2023-09-19T10:06:40;99980.25;;;28.26;43.60
3544;BME280;1786;52.870;9.578;2023-09-19T10:09:14;99981.94;;;28.45;42.84
3544;BME280;1786;52.870;9.578;2023-09-19T10:11:45;99982.47;;;27.55;44.12
3544;BME280;1786;52.870;9.578;2023-09-19T10:14:15;99977.47;;;27.02;44.76
3544;BME280;1786;52.870;9.578;2023-09-19T10:16:46;99979.78;;;26.98;43.82
3544;BME280;1786;52.870;9.578;2023-09-19T10:19:20;99977.97;;;27.68;44.04
3544;BME280;1786;52.870;9.578;2023-09-19T10:21:50;100000.09;;;28.75;43.57
3544;BME280;1786;52.870;9.578;2023-09-19T10:24:18;99985.25;;;29.20;43.17
3544;BME280;1786;52.870;9.578;2023-09-19T10:26:47;99990.22;;;28.92;41.97
3544;BME280;1786;52.870;9.578;2023-09-19T10:29:17;100002.59;;;27.91;43.55
3544;BME280;1786;52.870;9.578;2023-09-19T10:31:47;99992.78;;;26.90;44.00
3544;BME280;1786;52.870;9.578;2023-09-19T10:34:15;99993.41;;;28.11;44.52
3544;BME280;1786;52.870;9.578;2023-09-19T10:36:46;99994.00;;;27.94;43.54
3544;BME280;1786;52.870;9.578;2023-09-19T10:39:15;99983.59;;;27.23;44.47
3544;BME280;1786;52.870;9.578;2023-09-19T10:41:50;99987.16;;;27.67;44.56
3544;BME280;1786;52.870;9.578;2023-09-19T10:44:23;99984.34;;;27.05;45.10
3544;BME280;1786;52.870;9.578;2023-09-19T10:46:54;99980.56;;;27.06;45.53
3544;BME280;1786;52.870;9.578;2023-09-19T10:49:22;99980.97;;;27.59;45.16
3544;BME280;1786;52.870;9.578;2023-09-19T10:51:51;99998.41;;;26.57;45.09
3544;BME280;1786;52.870;9.578;2023-09-19T10:54:22;99978.53;;;26.18;45.83
3544;BME280;1786;52.870;9.578;2023-09-19T10:56:53;99975.22;;;26.09;46.16
3544;BME280;1786;52.870;9.578;2023-09-19T10:59:21;99969.47;;;26.82;45.98
3544;BME280;1786;52.870;9.578;2023-09-19T11:01:52;99980.59;;;26.16;46.12
3544;BME280;1786;52.870;9.578;2023-09-19T11:04:33;99983.72;;;27.34;44.76
3544;BME280;1786;52.870;9.578;2023-09-19T11:18:51;99983.31;;;27.31;45.14
3544;BME280;1786;52.870;9.578;2023-09-19T11:26:41;99982.78;;;27.22;45.21
3544;BME280;1786;52.870;9.578;2023-09-19T11:29:27;99980.44;;;27.26;45.16
3544;BME280;1786;52.870;9.578;2023-09-19T11:31:55;99983.09;;;27.57;45.82
3544;BME280;1786;52.870;9.578;2023-09-19T11:37:04;99983.84;;;28.57;44.17
3544;BME280;1786;52.870;9.578;2023-09-19T11:40:08;99989.72;;;28.05;43.24
3544;BME280;1786;52.870;9.578;2023-09-19T11:42:55;99976.53;;;27.65;42.85
3544;BME280;1786;52.870;9.578;2023-09-19T11:48:08;99969.91;;;27.36;42.97
3544;BME280;1786;52.870;9.578;2023-09-19T11:50:35;99965.38;;;27.73;42.99
3544;BME280;1786;52.870;9.578;2023-09-19T11:53:05;99964.75;;;27.71;43.44
3544;BME280;1786;52.870;9.578;2023-09-19T11:55:33;99968.63;;;27.82;43.33
3544;BME280;1786;52.870;9.578;2023-09-19T11:58:01;99961.13;;;28.02;44.04
3544;BME280;1786;52.870;9.578;2023-09-19T12:00:27;99971.88;;;28.27;42.77
3544;BME280;1786;52.870;9.578;2023-09-19T12:02:55;99984.78;;;28.32;42.01
3544;BME280;1786;52.870;9.578;2023-09-19T12:05:30;99964.09;;;28.31;42.06
3544;BME280;1786;52.870;9.578;2023-09-19T12:08:00;99965.97;;;28.49;41.90
3544;BME280;1786;52.870;9.578;2023-09-19T12:10:27;99952.97;;;27.84;41.88
3544;BME280;1786;52.870;9.578;2023-09-19T12:12:54;99958.56;;;27.46;42.69
3544;BME280;1786;52.870;9.578;2023-09-19T12:15:23;99956.94;;;27.13;44.02
3544;BME280;1786;52.870;9.578;2023-09-19T12:17:55;99959.22;;;27.41;43.84
3544;BME280;1786;52.870;9.578;2023-09-19T12:20:22;99959.31;;;27.03;44.34
3544;BME280;1786;52.870;9.578;2023-09-19T12:22:49;99959.19;;;27.66;43.54
3544;BME280;1786;52.870;9.578;2023-09-19T12:25:16;99958.59;;;27.39;42.66
3544;BME280;1786;52.870;9.578;2023-09-19T12:27:49;99966.69;;;27.21;43.21
3544;BME280;1786;52.870;9.578;2023-09-19T12:30:19;99958.97;;;26.92;43.32
3544;BME280;1786;52.870;9.578;2023-09-19T12:32:54;99955.81;;;26.95;43.67
3544;BME280;1786;52.870;9.578;2023-09-19T12:35:33;99958.19;;;27.79;43.69
3544;BME280;1786;52.870;9.578;2023-09-19T12:38:03;99972.72;;;28.46;42.57
3544;BME280;1786;52.870;9.578;2023-09-19T12:40:30;99972.03;;;28.14;43.51
3544;BME280;1786;52.870;9.578;2023-09-19T12:43:00;99949.44;;;27.58;43.55
3544;BME280;1786;52.870;9.578;2023-09-19T12:45:30;99963.00;;;27.58;43.58
3544;BME280;1786;52.870;9.578;2023-09-19T12:48:23;99959.00;;;27.86;43.61
3544;BME280;1786;52.870;9.578;2023-09-19T12:51:06;99948.78;;;27.63;43.70
3544;BME280;1786;52.870;9.578;2023-09-19T12:53:36;99949.16;;;27.23;44.03
3544;BME280;1786;52.870;9.578;2023-09-19T12:56:10;99951.16;;;27.03;44.23
3544;BME280;1786;52.870;9.578;2023-09-19T13:01:16;99939.75;;;27.44;44.85
3544;BME280;1786;52.870;9.578;2023-09-19T13:03:43;99942.66;;;26.99;44.41
3544;BME280;1786;52.870;9.578;2023-09-19T13:06:10;99940.19;;;27.66;45.36
3544;BME280;1786;52.870;9.578;2023-09-19T13:08:39;99940.84;;;27.61;45.03
3544;BME280;1786;52.870;9.578;2023-09-19T13:11:13;99944.00;;;27.40;43.44
3544;BME280;1786;52.870;9.578;2023-09-19T13:13:49;99932.53;;;27.56;43.48
3544;BME280;1786;52.870;9.578;2023-09-19T13:16:21;99937.22;;;27.49;43.75
3544;BME280;1786;52.870;9.578;2023-09-19T13:18:53;99934.25;;;27.07;44.44
3544;BME280;1786;52.870;9.578;2023-09-19T13:21:33;99928.78;;;27.57;43.86
3544;BME280;1786;52.870;9.578;2023-09-19T13:24:24;99924.91;;;27.47;43.87
3544;BME280;1786;52.870;9.578;2023-09-19T13:26:55;99929.22;;;27.98;43.84
3544;BME280;1786;52.870;9.578;2023-09-19T13:29:22;99931.16;;;28.09;43.71
3544;BME280;1786;52.870;9.578;2023-09-19T13:31:51;99921.66;;;28.90;44.10
3544;BME280;1786;52.870;9.578;2023-09-19T13:34:20;99929.34;;;28.52;43.06
3544;BME280;1786;52.870;9.578;2023-09-19T13:36:47;99922.13;;;28.45;43.18
3544;BME280;1786;52.870;9.578;2023-09-19T13:39:16;99922.97;;;28.27;43.15
3544;BME280;1786;52.870;9.578;2023-09-19T13:41:47;99914.78;;;28.16;45.08
3544;BME280;1786;52.870;9.578;2023-09-19T13:44:15;99905.97;;;27.83;43.72
3544;BME280;1786;52.870;9.578;2023-09-19T13:46:43;99901.94;;;28.04;42.63
3544;BME280;1786;52.870;9.578;2023-09-19T13:49:14;99917.78;;;27.71;44.54
3544;BME280;1786;52.870;9.578;2023-09-19T13:51:41;99914.91;;;27.47;44.14
3544;BME280;1786;52.870;9.578;2023-09-19T13:54:10;99894.34;;;27.39;45.22
3544;BME280;1786;52.870;9.578;2023-09-19T13:56:39;99917.75;;;28.26;44.18
3544;BME280;1786;52.870;9.578;2023-09-19T13:59:06;99909.97;;;28.30;43.67
3544;BME280;1786;52.870;9.578;2023-09-19T14:01:33;99904.81;;;28.70;43.17
3544;BME280;1786;52.870;9.578;2023-09-19T14:04:00;99911.75;;;28.54;43.73
3544;BME280;1786;52.870;9.578;2023-09-19T14:06:27;99900.97;;;28.47;43.04
3544;BME280;1786;52.870;9.578;2023-09-19T14:08:53;99891.00;;;27.74;44.05
3544;BME280;1786;52.870;9.578;2023-09-19T14:11:20;99905.41;;;27.56;44.62
3544;BME280;1786;52.870;9.578;2023-09-19T14:13:47;99893.88;;;27.17;44.56